Time;durP1;ratioP1;P1;durP2;ratioP2;P2;SDS_P1;SDS_P2;PMS_P1;PMS_P2;Temp;Humidity;BMP_temperature;BMP_pressure;BME280_temperature;BME280_humidity;BME280_pressure;Samples;Min_cycle;Max_cycle;Signal;HPM_P1;HPM_P2
2021/10/17 00:00:24;;;;;;;5.20;1.63;;;11.40;88.10;;;;;;5010900;28;20394;-72
2021/10/17 00:02:50;;;;;;;5.95;1.75;;;11.40;87.80;;;;;;5022398;28;20025;-72
2021/10/17 00:05:18;;;;;;;5.30;1.75;;;11.40;88.00;;;;;;5014046;28;20391;-72
2021/10/17 00:07:44;;;;;;;3.10;1.63;;;11.40;88.10;;;;;;5013878;28;20040;-72
2021/10/17 00:10:13;;;;;;;4.50;1.50;;;11.40;87.90;;;;;;5010893;28;20041;-72
2021/10/17 00:12:41;;;;;;;3.47;1.90;;;11.50;88.00;;;;;;5009737;28;20047;-72
2021/10/17 00:15:09;;;;;;;3.20;1.52;;;11.40;88.00;;;;;;5010926;28;20166;-70
2021/10/17 00:17:35;;;;;;;3.67;1.85;;;11.40;87.80;;;;;;5007801;28;20041;-72
2021/10/17 00:20:02;;;;;;;3.78;1.88;;;11.40;87.60;;;;;;5011300;28;20470;-72
2021/10/17 00:22:28;;;;;;;3.67;1.98;;;11.40;87.30;;;;;;5009190;28;20516;-72
2021/10/17 00:24:53;;;;;;;4.90;2.30;;;11.40;86.70;;;;;;5011640;28;20057;-72
2021/10/17 00:27:19;;;;;;;2.67;1.90;;;11.40;86.80;;;;;;5011642;28;20417;-72
2021/10/17 00:29:45;;;;;;;5.30;2.22;;;11.40;86.90;;;;;;5006958;28;20284;-72
2021/10/17 00:32:13;;;;;;;2.90;1.70;;;11.40;87.00;;;;;;5006277;28;20041;-72
2021/10/17 00:34:38;;;;;;;4.53;2.20;;;11.40;86.40;;;;;;5009870;28;20078;-72
2021/10/17 00:37:05;;;;;;;5.78;2.50;;;11.40;85.20;;;;;;5010724;28;20116;-72
2021/10/17 00:39:31;;;;;;;4.75;1.95;;;11.40;85.60;;;;;;5008867;28;20034;-72
2021/10/17 00:41:59;;;;;;;6.38;2.20;;;11.40;85.30;;;;;;5008435;28;20100;-72
2021/10/17 00:44:25;;;;;;;6.40;3.65;;;11.40;85.60;;;;;;5005649;28;20248;-72
2021/10/17 00:46:51;;;;;;;4.15;2.15;;;11.40;83.70;;;;;;5006943;28;20053;-72
2021/10/17 00:49:18;;;;;;;4.75;2.17;;;11.40;83.90;;;;;;5010079;28;20057;-72
2021/10/17 00:51:45;;;;;;;3.40;2.03;;;11.40;84.80;;;;;;5011094;28;20029;-70
2021/10/17 00:54:12;;;;;;;3.85;2.22;;;11.40;85.20;;;;;;5007834;28;20064;-70
2021/10/17 00:56:39;;;;;;;5.13;2.00;;;11.40;85.70;;;;;;5007864;28;20026;-70
2021/10/17 00:59:05;;;;;;;4.78;1.77;;;11.30;85.50;;;;;;5009941;28;20124;-70
2021/10/17 01:01:31;;;;;;;6.03;1.98;;;11.40;84.40;;;;;;5009046;28;20598;-70
2021/10/17 01:03:57;;;;;;;7.15;1.92;;;11.40;84.00;;;;;;5011791;28;20030;-70
2021/10/17 01:06:23;;;;;;;4.70;2.05;;;11.30;84.00;;;;;;5010485;28;20032;-70
2021/10/17 01:08:48;;;;;;;4.57;1.73;;;11.20;84.50;;;;;;5009902;28;20117;-69
2021/10/17 01:11:15;;;;;;;3.97;1.52;;;11.30;84.60;;;;;;5010147;28;20497;-70
2021/10/17 01:13:41;;;;;;;5.50;2.17;;;11.30;83.70;;;;;;5008627;28;20068;-70
2021/10/17 01:16:07;;;;;;;3.10;1.65;;;11.30;83.90;;;;;;5007553;28;20084;-69
2021/10/17 01:18:41;;;;;;;3.25;1.65;;;11.30;84.60;;;;;;5009509;28;20044;-70
2021/10/17 01:21:12;;;;;;;5.38;1.92;;;11.30;85.20;;;;;;5007349;28;20029;-70
2021/10/17 01:23:40;;;;;;;5.68;1.63;;;11.30;84.50;;;;;;5009530;28;20029;-70
2021/10/17 01:26:06;;;;;;;4.03;1.50;;;11.30;83.60;;;;;;5005988;28;20141;-70
2021/10/17 01:28:32;;;;;;;4.28;1.50;;;11.30;83.10;;;;;;5009804;28;20109;-70
2021/10/17 01:30:58;;;;;;;4.05;1.42;;;11.30;83.70;;;;;;5009461;28;20025;-70
2021/10/17 01:33:23;;;;;;;4.82;1.50;;;11.30;83.00;;;;;;5008650;28;20030;-70
2021/10/17 01:35:49;;;;;;;2.63;1.45;;;11.30;83.00;;;;;;5009835;28;20076;-68
2021/10/17 01:38:15;;;;;;;2.40;1.77;;;11.30;83.50;;;;;;5014306;28;20112;-70
2021/10/17 01:40:41;;;;;;;3.53;1.65;;;11.20;83.80;;;;;;5006318;28;20033;-69
2021/10/17 01:43:07;;;;;;;3.38;1.55;;;11.20;84.30;;;;;;5009657;28;20048;-70
2021/10/17 01:45:53;;;;;;;3.97;2.00;;;11.20;84.50;;;;;;5011798;28;20038;-70
2021/10/17 01:48:19;;;;;;;4.25;1.67;;;11.20;85.00;;;;;;5007715;28;20087;-70
2021/10/17 01:50:46;;;;;;;5.30;1.83;;;11.20;84.90;;;;;;4995795;28;20034;-70
2021/10/17 01:53:13;;;;;;;3.90;1.50;;;11.10;84.70;;;;;;5007345;28;20056;-72
2021/10/17 01:55:39;;;;;;;7.32;1.90;;;11.10;84.20;;;;;;5010428;28;20111;-70
2021/10/17 01:58:05;;;;;;;4.38;1.73;;;11.10;83.90;;;;;;5008230;28;20034;-70
2021/10/17 02:00:32;;;;;;;2.75;1.63;;;11.10;84.20;;;;;;5004592;28;20033;-72
2021/10/17 02:02:58;;;;;;;3.10;1.75;;;11.10;84.40;;;;;;5005970;28;20022;-70
2021/10/17 02:05:31;;;;;;;3.03;1.70;;;11.10;84.10;;;;;;5008740;28;20026;-70
2021/10/17 02:07:59;;;;;;;4.82;1.90;;;11.10;83.90;;;;;;5008739;28;20326;-70
2021/10/17 02:10:25;;;;;;;3.67;1.85;;;11.10;83.40;;;;;;5010513;28;20082;-70
2021/10/17 02:12:55;;;;;;;4.78;1.77;;;11.00;83.50;;;;;;4993682;28;20113;-70
2021/10/17 02:15:20;;;;;;;5.13;1.58;;;11.10;83.40;;;;;;5012959;28;20120;-70
2021/10/17 02:17:46;;;;;;;6.05;1.92;;;11.00;83.80;;;;;;5011439;28;20034;-70
2021/10/17 02:20:13;;;;;;;3.40;1.63;;;11.00;85.00;;;;;;5010709;28;20032;-72
2021/10/17 02:22:40;;;;;;;2.30;1.48;;;10.90;84.90;;;;;;5012836;28;20068;-69
2021/10/17 02:25:07;;;;;;;4.10;1.70;;;11.00;85.00;;;;;;5009626;28;20924;-72
2021/10/17 02:27:32;;;;;;;3.28;1.83;;;11.00;84.40;;;;;;5016454;28;20030;-72
2021/10/17 02:30:05;;;;;;;4.07;1.52;;;11.00;84.30;;;;;;5011783;28;20065;-71
2021/10/17 02:32:36;;;;;;;4.45;1.25;;;11.00;84.30;;;;;;5013515;28;20041;-72
2021/10/17 02:35:10;;;;;;;2.88;1.48;;;11.00;83.90;;;;;;5010371;28;20045;-72
2021/10/17 02:37:36;;;;;;;2.92;1.30;;;11.00;83.60;;;;;;5010423;28;20485;-72
2021/10/17 02:40:03;;;;;;;2.70;1.30;;;11.00;83.70;;;;;;5011583;28;20052;-72
2021/10/17 02:42:29;;;;;;;2.40;1.45;;;11.00;84.30;;;;;;5010688;28;20030;-72
2021/10/17 02:44:54;;;;;;;3.03;1.60;;;10.90;85.40;;;;;;5012567;28;20474;-72
2021/10/17 02:47:23;;;;;;;2.42;1.40;;;10.90;85.50;;;;;;5011049;28;20663;-72
2021/10/17 02:49:50;;;;;;;3.45;1.30;;;10.90;85.70;;;;;;5015126;28;20124;-72
2021/10/17 02:52:17;;;;;;;2.75;1.40;;;10.90;85.70;;;;;;5011848;28;20755;-72
2021/10/17 02:54:43;;;;;;;4.53;1.92;;;10.90;85.80;;;;;;5011976;28;20033;-71
2021/10/17 02:57:09;;;;;;;2.35;1.63;;;10.90;85.80;;;;;;4995119;28;20232;-72
2021/10/17 02:59:35;;;;;;;2.40;1.40;;;10.90;85.50;;;;;;5009087;28;20216;-72
2021/10/17 03:02:00;;;;;;;5.45;1.65;;;10.90;85.30;;;;;;5013364;28;20034;-72
2021/10/17 03:04:26;;;;;;;4.32;1.60;;;10.90;85.40;;;;;;5012598;28;20136;-72
2021/10/17 03:06:55;;;;;;;2.70;1.65;;;10.90;85.10;;;;;;5010738;28;20044;-71
2021/10/17 03:09:21;;;;;;;4.90;1.40;;;10.90;84.40;;;;;;5010184;28;20033;-72
2021/10/17 03:11:47;;;;;;;2.88;1.38;;;10.90;84.30;;;;;;4996259;28;20573;-71
2021/10/17 03:14:13;;;;;;;4.18;1.60;;;10.90;84.50;;;;;;5009494;28;20117;-72
2021/10/17 03:16:41;;;;;;;4.25;1.63;;;10.90;84.60;;;;;;5013437;28;20043;-71
2021/10/17 03:19:09;;;;;;;2.25;1.63;;;10.90;84.30;;;;;;4997426;28;20047;-71
2021/10/17 03:21:35;;;;;;;5.40;1.80;;;10.80;84.10;;;;;;5010473;28;20037;-72
2021/10/17 03:24:02;;;;;;;2.90;1.50;;;10.80;84.00;;;;;;5011683;28;20552;-72
2021/10/17 03:26:27;;;;;;;3.35;1.55;;;10.70;82.60;;;;;;5010208;28;20075;-72
2021/10/17 03:28:53;;;;;;;3.90;1.98;;;10.60;82.30;;;;;;4992460;28;20144;-72
2021/10/17 03:31:19;;;;;;;3.53;1.60;;;10.40;82.70;;;;;;5012278;28;20044;-72
2021/10/17 03:33:47;;;;;;;3.80;1.70;;;10.30;83.30;;;;;;5009665;28;20116;-72
2021/10/17 03:36:16;;;;;;;5.63;1.33;;;10.20;83.50;;;;;;5010333;28;20076;-72
2021/10/17 03:38:42;;;;;;;3.25;1.77;;;10.10;83.90;;;;;;5012473;28;20124;-70
2021/10/17 03:41:12;;;;;;;3.08;1.60;;;10.00;84.00;;;;;;5012069;28;20125;-72
2021/10/17 03:43:42;;;;;;;3.60;1.60;;;9.90;84.20;;;;;;5011382;28;20497;-71
2021/10/17 03:46:09;;;;;;;2.40;1.63;;;9.80;84.60;;;;;;5007515;28;20030;-72
2021/10/17 03:48:35;;;;;;;3.83;1.85;;;9.70;84.80;;;;;;5010767;28;20033;-71
2021/10/17 03:51:08;;;;;;;4.75;1.48;;;9.60;85.20;;;;;;5008444;28;20037;-72
2021/10/17 03:53:35;;;;;;;4.47;1.70;;;9.60;85.50;;;;;;5010083;28;20034;-71
2021/10/17 03:56:01;;;;;;;3.78;1.35;;;9.50;85.50;;;;;;5011982;28;20033;-72
2021/10/17 03:58:27;;;;;;;4.75;1.55;;;9.50;86.10;;;;;;5011376;28;20038;-71
2021/10/17 04:00:53;;;;;;;4.13;1.52;;;9.40;86.30;;;;;;5010715;28;20493;-71
2021/10/17 04:03:19;;;;;;;1.55;1.35;;;9.40;86.90;;;;;;5012205;28;20272;-71
2021/10/17 04:05:47;;;;;;;2.45;1.33;;;9.30;87.20;;;;;;5010183;28;20034;-72
2021/10/17 04:08:12;;;;;;;4.43;1.48;;;9.30;87.60;;;;;;5010310;28;20041;-71
2021/10/17 04:10:39;;;;;;;5.70;2.00;;;9.20;87.60;;;;;;5010923;28;20473;-72
2021/10/17 04:13:05;;;;;;;3.58;1.63;;;9.20;88.00;;;;;;5009743;28;20030;-72
2021/10/17 04:15:35;;;;;;;4.43;1.77;;;9.20;88.00;;;;;;5019278;28;20721;-72
2021/10/17 04:18:02;;;;;;;2.92;1.50;;;9.20;87.80;;;;;;5010073;28;20045;-71
2021/10/17 04:20:28;;;;;;;4.55;1.65;;;9.20;87.70;;;;;;5014166;28;20040;-71
2021/10/17 04:22:54;;;;;;;4.35;1.50;;;9.10;87.50;;;;;;5008728;28;20034;-72
2021/10/17 04:25:20;;;;;;;3.97;1.85;;;9.10;87.80;;;;;;5007747;28;20037;-72
2021/10/17 04:27:48;;;;;;;2.33;1.50;;;9.10;87.90;;;;;;5010361;28;20033;-72
2021/10/17 04:30:14;;;;;;;2.38;1.48;;;9.00;87.90;;;;;;5009134;28;20033;-72
2021/10/17 04:32:39;;;;;;;3.40;1.70;;;9.00;88.30;;;;;;5005586;28;20429;-71
2021/10/17 04:35:07;;;;;;;4.03;1.77;;;9.00;88.60;;;;;;5016629;28;20033;-71
2021/10/17 04:37:33;;;;;;;2.95;1.42;;;9.00;89.20;;;;;;5015902;28;20037;-71
2021/10/17 04:39:59;;;;;;;3.17;1.60;;;8.90;89.70;;;;;;5015435;28;20117;-71
2021/10/17 04:42:25;;;;;;;5.05;2.13;;;8.90;90.10;;;;;;5010065;28;20036;-71
2021/10/17 04:44:52;;;;;;;2.83;1.73;;;8.90;90.30;;;;;;5010827;28;20112;-71
2021/10/17 04:47:18;;;;;;;4.43;1.67;;;8.90;90.30;;;;;;5017377;28;20132;-71
2021/10/17 04:49:44;;;;;;;4.65;1.58;;;8.90;90.30;;;;;;5007648;28;20042;-71
2021/10/17 04:52:09;;;;;;;5.90;2.33;;;8.90;90.10;;;;;;5011336;28;20025;-72
2021/10/17 04:54:35;;;;;;;4.88;1.80;;;8.80;90.10;;;;;;5013886;28;20068;-72
2021/10/17 04:57:01;;;;;;;3.00;1.70;;;8.80;90.10;;;;;;5014479;28;20053;-69
2021/10/17 04:59:27;;;;;;;3.45;1.63;;;8.80;90.00;;;;;;5013523;28;20064;-71
2021/10/17 05:01:57;;;;;;;4.43;1.55;;;8.80;89.80;;;;;;5008682;28;20548;-72
2021/10/17 05:04:23;;;;;;;3.72;1.58;;;8.80;90.20;;;;;;5011550;28;20080;-71
2021/10/17 05:06:51;;;;;;;2.67;1.45;;;8.80;90.20;;;;;;5020430;28;20044;-72
2021/10/17 05:09:16;;;;;;;7.53;1.80;;;8.80;90.20;;;;;;5017824;28;20045;-71
2021/10/17 05:11:42;;;;;;;2.65;1.60;;;8.80;90.20;;;;;;5006613;28;20037;-71
2021/10/17 05:14:09;;;;;;;3.30;1.52;;;8.90;90.20;;;;;;5013947;28;20602;-71
2021/10/17 05:16:34;;;;;;;3.08;1.50;;;8.90;90.10;;;;;;5013814;28;20045;-72
2021/10/17 05:19:01;;;;;;;3.90;1.70;;;9.00;90.00;;;;;;4996166;28;20493;-72
2021/10/17 05:21:32;;;;;;;6.63;1.55;;;9.00;89.90;;;;;;5008758;28;20406;-71
2021/10/17 05:23:58;;;;;;;4.15;1.73;;;9.10;89.30;;;;;;5011827;28;20029;-73
2021/10/17 05:26:23;;;;;;;3.92;1.63;;;9.10;89.20;;;;;;5023155;28;20030;-71
2021/10/17 05:28:49;;;;;;;5.35;2.00;;;9.20;89.70;;;;;;5000777;28;20060;-69
2021/10/17 05:31:15;;;;;;;2.80;1.50;;;9.30;89.00;;;;;;5013816;28;20025;-71
2021/10/17 05:33:41;;;;;;;4.15;1.50;;;9.30;88.60;;;;;;5018869;28;20106;-71
2021/10/17 05:36:07;;;;;;;3.95;1.92;;;9.30;88.10;;;;;;5011015;28;20071;-72
2021/10/17 05:38:33;;;;;;;7.00;1.67;;;9.40;88.10;;;;;;5009108;28;20033;-72
2021/10/17 05:41:00;;;;;;;5.05;2.05;;;9.40;87.90;;;;;;5011948;28;20045;-72
2021/10/17 05:43:26;;;;;;;4.85;1.80;;;9.50;88.00;;;;;;5021419;28;20030;-71
2021/10/17 05:45:52;;;;;;;6.07;1.70;;;9.50;87.80;;;;;;5017154;28;20033;-71
2021/10/17 05:48:17;;;;;;;2.67;1.80;;;9.60;87.10;;;;;;5007787;28;20060;-72
2021/10/17 05:50:43;;;;;;;4.55;1.80;;;9.60;87.40;;;;;;5023766;28;20775;-72
2021/10/17 05:53:09;;;;;;;1.70;1.38;;;9.60;87.10;;;;;;5007593;28;20037;-71
2021/10/17 05:55:35;;;;;;;3.95;1.60;;;9.60;86.80;;;;;;5011629;28;20048;-68
2021/10/17 05:58:01;;;;;;;5.95;1.80;;;9.70;86.70;;;;;;5003200;28;20044;-70
2021/10/17 06:00:29;;;;;;;6.55;1.60;;;9.70;86.70;;;;;;5015075;28;20523;-71
2021/10/17 06:03:00;;;;;;;5.90;2.10;;;9.80;86.30;;;;;;5016678;28;20877;-71
2021/10/17 06:05:28;;;;;;;2.63;1.73;;;9.80;85.90;;;;;;5024713;28;20706;-71
2021/10/17 06:07:55;;;;;;;7.75;2.33;;;9.90;85.70;;;;;;5014442;28;20135;-71
2021/10/17 06:10:21;;;;;;;7.20;1.92;;;9.90;85.70;;;;;;5019970;28;20037;-71
2021/10/17 06:12:46;;;;;;;6.78;2.55;;;9.90;83.50;;;;;;5010829;28;20118;-70
2021/10/17 06:15:15;;;;;;;7.75;1.75;;;10.00;81.20;;;;;;5006516;28;20144;-73
2021/10/17 06:17:41;;;;;;;2.63;1.58;;;10.00;82.20;;;;;;5008772;28;20048;-77
2021/10/17 06:20:07;;;;;;;4.25;1.30;;;10.00;83.80;;;;;;5010362;28;20029;-69
2021/10/17 06:22:38;;;;;;;3.88;1.80;;;10.00;84.40;;;;;;5010468;28;20021;-71
2021/10/17 06:25:05;;;;;;;4.85;1.73;;;10.00;84.70;;;;;;5009158;28;20949;-68
2021/10/17 06:27:31;;;;;;;3.58;1.77;;;10.00;84.40;;;;;;5009234;28;20320;-68
2021/10/17 06:29:57;;;;;;;4.07;1.55;;;10.10;84.00;;;;;;5005966;28;20640;-68
2021/10/17 06:32:23;;;;;;;8.85;2.50;;;10.20;83.40;;;;;;5005369;28;20040;-67
2021/10/17 06:34:49;;;;;;;9.70;2.40;;;10.20;82.60;;;;;;5013157;28;20036;-69
2021/10/17 06:37:15;;;;;;;6.72;1.85;;;10.20;81.70;;;;;;5006326;28;20121;-68
2021/10/17 06:39:41;;;;;;;4.20;2.35;;;10.30;81.30;;;;;;5010965;28;20029;-67
2021/10/17 06:42:13;;;;;;;5.07;1.67;;;10.30;81.00;;;;;;5009395;28;20144;-68
2021/10/17 06:44:52;;;;;;;6.82;1.77;;;10.30;80.20;;;;;;5015460;28;20029;-66
2021/10/17 06:47:17;;;;;;;4.22;1.55;;;10.30;79.80;;;;;;5008424;28;20652;-69
2021/10/17 06:49:44;;;;;;;2.13;1.30;;;10.40;80.00;;;;;;5009559;28;20072;-69
2021/10/17 06:52:10;;;;;;;2.60;1.58;;;10.40;80.90;;;;;;5011298;28;20095;-69
2021/10/17 06:54:37;;;;;;;5.45;2.05;;;10.40;81.50;;;;;;5012129;28;20037;-69
2021/10/17 06:57:02;;;;;;;6.28;2.10;;;10.40;81.40;;;;;;5008795;28;20072;-68
2021/10/17 06:59:28;;;;;;;3.10;1.88;;;10.50;81.50;;;;;;5006158;28;20113;-74
2021/10/17 07:01:54;;;;;;;8.75;1.70;;;10.50;81.00;;;;;;5010179;28;20076;-69
2021/10/17 07:04:20;;;;;;;4.13;1.55;;;10.60;80.40;;;;;;5014693;28;20108;-73
2021/10/17 07:06:46;;;;;;;5.38;2.10;;;10.60;79.00;;;;;;5018164;28;20029;-69
2021/10/17 07:09:15;;;;;;;6.40;1.70;;;10.70;79.50;;;;;;5013422;28;20417;-69
2021/10/17 07:11:44;;;;;;;3.17;1.33;;;10.70;79.70;;;;;;5016357;28;20059;-69
2021/10/17 07:14:24;;;;;;;3.78;1.90;;;10.80;79.60;;;;;;5016852;28;20067;-72
2021/10/17 07:17:01;;;;;;;7.72;2.67;;;10.90;80.50;;;;;;5012438;28;20030;-78
2021/10/17 07:19:29;;;;;;;2.47;1.60;;;10.90;79.70;;;;;;5015511;28;20320;-67
2021/10/17 07:21:55;;;;;;;8.60;2.10;;;11.00;78.60;;;;;;5001088;28;20495;-77
2021/10/17 07:24:21;;;;;;;7.18;2.13;;;11.10;77.60;;;;;;5017721;28;20437;-68
2021/10/17 07:26:50;;;;;;;5.53;2.05;;;11.10;76.80;;;;;;5014023;28;20041;-72
2021/10/17 07:29:15;;;;;;;3.67;1.55;;;11.10;76.70;;;;;;5009855;28;20045;-72
2021/10/17 07:31:41;;;;;;;7.55;1.80;;;11.10;76.90;;;;;;5021892;28;20033;-69
2021/10/17 07:34:08;;;;;;;6.15;2.20;;;11.10;76.20;;;;;;5020236;28;20036;-68
2021/10/17 07:36:35;;;;;;;9.25;2.47;;;11.20;75.90;;;;;;5009186;28;20038;-68
2021/10/17 07:39:06;;;;;;;5.40;2.08;;;11.20;76.60;;;;;;5025054;28;20030;-70
2021/10/17 07:41:35;;;;;;;4.85;1.92;;;11.30;75.90;;;;;;5010388;28;20038;-70
2021/10/17 07:44:04;;;;;;;10.27;2.65;;;11.20;76.00;;;;;;5015078;28;20698;-72
2021/10/17 07:46:30;;;;;;;4.38;1.90;;;11.20;76.30;;;;;;5011423;28;20040;-69
2021/10/17 07:48:58;;;;;;;2.90;1.55;;;11.30;76.90;;;;;;5014360;28;20037;-79
2021/10/17 07:51:25;;;;;;;3.22;1.60;;;11.30;77.10;;;;;;5013139;28;20041;-73
2021/10/17 07:53:51;;;;;;;4.25;1.63;;;11.30;77.60;;;;;;5012743;28;20849;-73
2021/10/17 07:56:19;;;;;;;5.07;1.80;;;11.40;78.30;;;;;;5015861;28;20147;-72
2021/10/17 07:58:46;;;;;;;5.20;1.98;;;11.50;78.00;;;;;;5019684;28;20041;-75
2021/10/17 08:01:23;;;;;;;12.27;2.22;;;11.50;78.20;;;;;;5022145;28;20481;-75
2021/10/17 08:04:18;;;;;;;4.45;1.90;;;11.60;76.90;;;;;;5005904;28;20591;-72
2021/10/17 08:06:58;;;;;;;5.72;1.98;;;11.60;77.60;;;;;;5020907;28;20021;-74
2021/10/17 08:09:25;;;;;;;9.52;2.08;;;11.70;77.50;;;;;;5013901;28;20745;-75
2021/10/17 08:11:51;;;;;;;5.43;1.73;;;11.80;77.10;;;;;;5023492;28;20120;-67
2021/10/17 08:14:17;;;;;;;6.68;1.70;;;11.80;77.30;;;;;;5011494;28;20132;-68
2021/10/17 08:16:47;;;;;;;6.93;1.92;;;11.80;76.60;;;;;;5012646;28;20029;-67
2021/10/17 08:19:15;;;;;;;11.90;2.40;;;11.90;76.70;;;;;;5012366;28;20087;-67
2021/10/17 08:21:41;;;;;;;11.80;1.85;;;11.90;75.60;;;;;;5019099;28;20599;-70
2021/10/17 08:24:09;;;;;;;9.88;2.30;;;12.00;76.00;;;;;;5016037;28;20192;-65
2021/10/17 08:26:41;;;;;;;6.63;2.13;;;11.80;74.90;;;;;;5020826;28;20034;-68
2021/10/17 08:29:11;;;;;;;8.40;2.88;;;11.70;75.40;;;;;;5010887;28;20029;-69
2021/10/17 08:31:37;;;;;;;18.15;9.90;;;11.70;76.10;;;;;;5017222;28;20069;-69
2021/10/17 08:34:08;;;;;;;26.50;14.45;;;11.80;75.50;;;;;;5010342;28;20035;-69
2021/10/17 08:36:34;;;;;;;22.75;16.02;;;12.00;75.30;;;;;;5011027;28;20041;-66
2021/10/17 08:39:01;;;;;;;25.75;21.85;;;11.90;74.40;;;;;;5017637;28;20037;-67
2021/10/17 08:41:39;;;;;;;20.92;14.07;;;12.00;74.40;;;;;;5017130;28;20560;-68
2021/10/17 08:44:12;;;;;;;8.60;6.35;;;12.10;73.60;;;;;;5019910;28;20076;-67
2021/10/17 08:46:50;;;;;;;7.97;3.03;;;12.20;73.70;;;;;;5025152;28;20040;-67
2021/10/17 08:49:20;;;;;;;14.73;3.72;;;12.30;73.70;;;;;;5016019;28;20095;-67
2021/10/17 08:51:46;;;;;;;8.70;2.97;;;12.30;73.50;;;;;;5008630;28;20052;-69
2021/10/17 08:54:12;;;;;;;12.98;3.33;;;12.40;73.00;;;;;;5011223;28;20139;-68
2021/10/17 08:56:47;;;;;;;4.95;3.08;;;12.50;73.40;;;;;;5014794;28;20064;-74
2021/10/17 08:59:14;;;;;;;12.45;5.45;;;12.60;72.60;;;;;;5012676;28;20029;-73
2021/10/17 09:01:45;;;;;;;10.88;4.22;;;12.80;72.10;;;;;;5023143;28;20064;-73
2021/10/17 09:04:14;;;;;;;9.40;5.05;;;12.90;71.80;;;;;;5010025;28;20026;-70
2021/10/17 09:07:20;;;;;;;6.35;2.88;;;13.20;71.30;;;;;;5008295;28;20103;-71
2021/10/17 09:10:10;;;;;;;7.63;2.65;;;13.40;69.60;;;;;;5011068;28;20030;-71
2021/10/17 09:12:37;;;;;;;8.55;3.38;;;13.40;66.70;;;;;;5008370;28;20038;-71
2021/10/17 09:15:23;;;;;;;12.80;3.90;;;13.40;66.90;;;;;;5010106;28;20029;-70
2021/10/17 09:18:05;;;;;;;8.43;4.32;;;13.50;67.80;;;;;;5014470;28;20033;-70
2021/10/17 09:20:51;;;;;;;8.05;3.30;;;13.50;67.50;;;;;;5015423;28;20090;-71
2021/10/17 09:23:37;;;;;;;8.45;3.45;;;13.50;68.40;;;;;;5014317;28;20082;-71
2021/10/17 09:26:09;;;;;;;11.67;3.17;;;13.70;67.70;;;;;;4998340;28;20144;-71
2021/10/17 09:28:35;;;;;;;5.93;2.90;;;13.70;66.30;;;;;;5012304;28;20457;-69
2021/10/17 09:31:02;;;;;;;7.38;2.30;;;13.80;68.00;;;;;;5018820;28;20041;-71
2021/10/17 09:33:29;;;;;;;7.05;2.33;;;13.80;65.90;;;;;;5007503;28;20160;-71
2021/10/17 09:35:56;;;;;;;8.77;2.22;;;13.80;67.00;;;;;;5007344;28;20033;-70
2021/10/17 09:39:01;;;;;;;5.97;2.42;;;13.70;66.70;;;;;;5008980;28;20119;-71
2021/10/17 09:41:33;;;;;;;6.47;1.95;;;13.50;67.50;;;;;;5006231;28;20041;-71
2021/10/17 09:44:02;;;;;;;7.68;3.17;;;13.50;67.60;;;;;;5007761;28;20037;-69
2021/10/17 09:46:52;;;;;;;9.93;2.35;;;13.50;66.50;;;;;;5019110;28;20421;-75
2021/10/17 09:49:19;;;;;;;5.93;3.78;;;13.60;67.20;;;;;;5011588;28;20036;-77
2021/10/17 09:51:44;;;;;;;12.95;4.60;;;13.70;68.20;;;;;;5020164;28;20026;-68
2021/10/17 09:54:10;;;;;;;8.63;3.22;;;13.70;66.40;;;;;;5011358;28;20440;-69
2021/10/17 09:56:38;;;;;;;5.55;2.45;;;13.70;66.80;;;;;;5011150;28;20076;-70
2021/10/17 09:59:13;;;;;;;10.27;3.08;;;13.80;67.70;;;;;;5011199;28;20577;-69
2021/10/17 10:01:41;;;;;;;11.23;4.80;;;13.90;67.00;;;;;;5008499;28;20043;-67
2021/10/17 10:04:09;;;;;;;12.35;6.18;;;14.00;66.20;;;;;;5010589;28;20034;-69
2021/10/17 10:06:35;;;;;;;11.15;5.18;;;14.00;67.10;;;;;;5007860;28;20087;-67
2021/10/17 10:09:07;;;;;;;6.50;2.78;;;14.00;67.00;;;;;;5006828;28;20045;-66
2021/10/17 10:11:34;;;;;;;5.65;2.40;;;14.10;66.60;;;;;;5010858;28;20872;-76
2021/10/17 10:14:04;;;;;;;8.50;4.72;;;14.30;64.40;;;;;;5010440;28;20037;-72
2021/10/17 10:16:31;;;;;;;9.20;4.25;;;14.30;65.20;;;;;;5010534;28;20067;-75
2021/10/17 10:19:05;;;;;;;11.07;4.45;;;14.20;65.40;;;;;;5011776;28;20134;-71
2021/10/17 10:21:31;;;;;;;18.27;6.43;;;14.10;65.00;;;;;;5008573;28;20099;-72
2021/10/17 10:24:03;;;;;;;24.67;10.68;;;14.00;65.10;;;;;;5007992;28;20030;-67
2021/10/17 10:26:31;;;;;;;18.17;7.90;;;14.10;66.20;;;;;;5013538;28;20038;-67
2021/10/17 10:28:57;;;;;;;33.40;12.85;;;14.10;66.80;;;;;;5008609;28;20037;-68
2021/10/17 10:31:52;;;;;;;14.48;4.72;;;14.30;65.80;;;;;;5009621;28;20039;-70
2021/10/17 10:34:21;;;;;;;12.10;3.60;;;14.50;65.30;;;;;;5012045;28;20033;-71
2021/10/17 10:36:48;;;;;;;9.48;2.95;;;14.60;65.30;;;;;;5016285;28;20049;-71
2021/10/17 10:39:18;;;;;;;14.40;3.47;;;14.80;65.60;;;;;;5015816;28;20033;-71
2021/10/17 10:41:52;;;;;;;19.45;6.40;;;14.90;64.30;;;;;;5016826;28;20025;-67
2021/10/17 10:44:23;;;;;;;15.70;6.22;;;14.90;63.20;;;;;;5009429;28;20022;-73
2021/10/17 10:46:50;;;;;;;11.18;3.42;;;14.80;65.00;;;;;;5005716;28;20042;-72
2021/10/17 10:49:41;;;;;;;12.40;3.28;;;14.80;64.00;;;;;;5014277;28;20171;-70
2021/10/17 10:52:08;;;;;;;14.50;4.90;;;14.80;64.40;;;;;;5016317;28;20049;-75
2021/10/17 10:54:34;;;;;;;18.83;5.50;;;14.90;64.00;;;;;;5016890;28;20041;-69
2021/10/17 10:57:00;;;;;;;11.13;3.97;;;15.00;63.40;;;;;;5011247;28;20572;-69
2021/10/17 10:59:48;;;;;;;11.68;4.10;;;14.80;63.60;;;;;;5010697;28;20088;-68
2021/10/17 11:02:20;;;;;;;11.45;4.35;;;14.80;65.20;;;;;;5013087;28;20521;-69
2021/10/17 11:04:46;;;;;;;7.43;2.80;;;14.90;65.10;;;;;;5008600;28;20398;-69
2021/10/17 11:07:18;;;;;;;16.52;6.00;;;15.00;64.80;;;;;;5009544;28;20029;-72
2021/10/17 11:09:45;;;;;;;11.05;3.55;;;15.00;63.20;;;;;;5015678;28;20056;-71
2021/10/17 11:12:11;;;;;;;11.25;4.07;;;15.00;64.60;;;;;;5015249;28;20076;-71
2021/10/17 11:14:36;;;;;;;17.73;5.28;;;15.10;65.10;;;;;;5009127;28;20117;-71
2021/10/17 11:17:06;;;;;;;16.73;5.32;;;15.10;64.60;;;;;;5015073;28;20037;-78
2021/10/17 11:19:35;;;;;;;19.15;6.57;;;14.90;63.60;;;;;;5008599;28;20033;-72
2021/10/17 11:22:02;;;;;;;19.10;6.78;;;14.80;64.60;;;;;;5012055;28;20031;-72
2021/10/17 11:24:28;;;;;;;9.00;3.60;;;14.70;65.70;;;;;;5014654;28;20398;-72
2021/10/17 11:27:14;;;;;;;15.07;5.22;;;14.70;66.60;;;;;;5009916;28;20046;-72
2021/10/17 11:29:44;;;;;;;25.77;9.48;;;14.80;66.20;;;;;;5008631;28;20670;-72
2021/10/17 11:32:17;;;;;;;18.65;8.85;;;14.90;66.20;;;;;;5016946;28;20034;-75
2021/10/17 11:34:58;;;;;;;13.90;4.03;;;14.90;65.20;;;;;;5007446;28;20057;-76
2021/10/17 11:37:26;;;;;;;12.52;4.03;;;15.00;65.50;;;;;;5010423;28;20683;-71
2021/10/17 11:40:02;;;;;;;6.57;3.63;;;15.10;66.10;;;;;;5008785;28;20801;-69
2021/10/17 11:42:41;;;;;;;6.80;3.10;;;15.10;65.30;;;;;;5012243;28;20037;-71
2021/10/17 11:45:14;;;;;;;5.70;3.00;;;15.20;66.50;;;;;;5011631;28;20107;-74
2021/10/17 11:47:45;;;;;;;6.85;3.33;;;15.30;65.30;;;;;;5014753;28;20761;-74
2021/10/17 11:50:11;;;;;;;7.35;3.30;;;15.30;65.00;;;;;;5015429;28;20069;-74
2021/10/17 11:52:51;;;;;;;10.52;3.08;;;15.40;65.10;;;;;;5010883;28;20109;-70
2021/10/17 11:55:31;;;;;;;7.25;3.15;;;15.50;66.20;;;;;;5013430;28;20065;-69
2021/10/17 11:57:57;;;;;;;4.63;2.75;;;15.50;65.40;;;;;;5011520;28;20044;-72
2021/10/17 12:00:31;;;;;;;8.75;3.00;;;15.50;65.40;;;;;;5016025;28;20033;-67
2021/10/17 12:02:57;;;;;;;6.63;2.90;;;15.40;64.90;;;;;;5010942;28;20076;-71
2021/10/17 12:05:26;;;;;;;8.40;3.55;;;15.30;65.70;;;;;;5014079;28;20030;-72
2021/10/17 12:07:58;;;;;;;11.90;3.78;;;15.10;65.80;;;;;;5009085;28;20030;-69
2021/10/17 12:10:29;;;;;;;7.95;3.05;;;15.00;65.70;;;;;;5014580;28;20034;-69
2021/10/17 12:13:01;;;;;;;6.38;3.05;;;15.10;66.00;;;;;;5009121;28;20128;-70
2021/10/17 12:15:29;;;;;;;9.32;3.05;;;15.10;67.10;;;;;;5024770;28;20040;-70
2021/10/17 12:17:59;;;;;;;8.13;3.25;;;15.20;67.50;;;;;;5011224;28;20037;-69
2021/10/17 12:20:26;;;;;;;9.02;3.08;;;15.30;66.20;;;;;;5019409;28;20037;-69
2021/10/17 12:22:53;;;;;;;5.97;3.08;;;15.40;66.10;;;;;;5010898;28;20512;-70
2021/10/17 12:25:39;;;;;;;9.73;3.05;;;15.40;65.80;;;;;;5012041;28;20041;-70
2021/10/17 12:28:04;;;;;;;6.65;2.63;;;15.40;65.80;;;;;;5020745;28;20041;-67
2021/10/17 12:30:37;;;;;;;5.22;2.97;;;15.40;66.10;;;;;;5018363;28;20044;-69
2021/10/17 12:33:10;;;;;;;10.73;3.80;;;15.40;65.40;;;;;;5016912;28;20042;-69
2021/10/17 12:35:38;;;;;;;9.95;3.50;;;15.40;66.10;;;;;;5019131;28;20046;-75
2021/10/17 12:38:12;;;;;;;10.88;3.63;;;15.40;65.60;;;;;;5007958;28;20037;-70
2021/10/17 12:41:01;;;;;;;8.07;3.13;;;15.30;66.30;;;;;;5014077;28;20065;-70
2021/10/17 12:43:38;;;;;;;9.52;3.42;;;15.20;67.40;;;;;;5020128;28;20186;-68
2021/10/17 12:46:17;;;;;;;9.23;2.42;;;15.00;67.70;;;;;;5011232;28;20037;-71
2021/10/17 12:48:44;;;;;;;10.25;3.90;;;15.10;68.80;;;;;;5016067;28;20028;-68
2021/10/17 12:51:43;;;;;;;12.60;3.83;;;15.10;68.00;;;;;;5014292;28;20041;-68
2021/10/17 12:54:18;;;;;;;8.18;3.17;;;15.00;66.70;;;;;;5011164;28;20853;-68
2021/10/17 12:56:49;;;;;;;9.65;3.30;;;15.00;68.20;;;;;;5009154;28;20043;-68